sensor_id;sensor_type;location;lat;lon;timestamp;pressure;altitude;pressure_sealevel;temperature;humidity
39177;BME280;24904;52.208;21.192;2023-05-31T00:03:27;101256.84;;;11.56;56.36
39177;BME280;24904;52.208;21.192;2023-05-31T00:08:30;101256.23;;;11.43;56.65
39177;BME280;24904;52.208;21.192;2023-05-31T00:13:34;101253.82;;;11.36;57.15
39177;BME280;24904;52.208;21.192;2023-05-31T00:18:37;101253.67;;;11.33;57.39
39177;BME280;24904;52.208;21.192;2023-05-31T00:23:40;101254.13;;;11.25;57.74
39177;BME280;24904;52.208;21.192;2023-05-31T00:28:43;101252.23;;;11.17;57.73
39177;BME280;24904;52.208;21.192;2023-05-31T00:33:46;101252.16;;;11.11;57.97
39177;BME280;24904;52.208;21.192;2023-05-31T00:38:49;101252.02;;;11.05;58.27
39177;BME280;24904;52.208;21.192;2023-05-31T00:43:52;101249.81;;;10.98;58.31
39177;BME280;24904;52.208;21.192;2023-05-31T00:48:56;101252.39;;;10.91;58.53
39177;BME280;24904;52.208;21.192;2023-05-31T00:54:01;101252.63;;;10.87;59.02
39177;BME280;24904;52.208;21.192;2023-05-31T00:59:04;101252.88;;;10.89;58.99
39177;BME280;24904;52.208;21.192;2023-05-31T01:04:08;101249.81;;;10.75;59.02
39177;BME280;24904;52.208;21.192;2023-05-31T01:09:11;101247.83;;;10.55;59.16
39177;BME280;24904;52.208;21.192;2023-05-31T01:14:27;101256.98;;;10.42;59.59
39177;BME280;24904;52.208;21.192;2023-05-31T01:19:45;101271.52;;;10.34;60.24
39177;BME280;24904;52.208;21.192;2023-05-31T01:25:05;101275.39;;;10.26;60.27
39177;BME280;24904;52.208;21.192;2023-05-31T01:30:17;101284.06;;;10.17;60.72
39177;BME280;24904;52.208;21.192;2023-05-31T01:35:23;101278.22;;;10.13;60.86
39177;BME280;24904;52.208;21.192;2023-05-31T01:40:26;101282.78;;;10.05;60.80
39177;BME280;24904;52.208;21.192;2023-05-31T01:45:30;101287.05;;;10.01;61.17
39177;BME280;24904;52.208;21.192;2023-05-31T01:50:33;101289.67;;;9.94;61.27
39177;BME280;24904;52.208;21.192;2023-05-31T01:55:37;101289.59;;;9.80;61.05
39177;BME280;24904;52.208;21.192;2023-05-31T02:00:42;101290.89;;;9.73;61.39
39177;BME280;24904;52.208;21.192;2023-05-31T02:05:59;101288.53;;;9.70;61.44
39177;BME280;24904;52.208;21.192;2023-05-31T02:11:04;101294.70;;;9.62;61.60
39177;BME280;24904;52.208;21.192;2023-05-31T02:16:45;101296.39;;;9.61;62.08
39177;BME280;24904;52.208;21.192;2023-05-31T02:21:48;101296.09;;;9.50;62.09
39177;BME280;24904;52.208;21.192;2023-05-31T02:26:51;101296.89;;;9.46;62.18
39177;BME280;24904;52.208;21.192;2023-05-31T02:31:55;101302.10;;;9.43;62.21
39177;BME280;24904;52.208;21.192;2023-05-31T02:36:58;101307.08;;;9.38;62.17
39177;BME280;24904;52.208;21.192;2023-05-31T02:42:01;101307.86;;;9.36;62.68
39177;BME280;24904;52.208;21.192;2023-05-31T02:47:04;101305.68;;;9.31;62.48
39177;BME280;24904;52.208;21.192;2023-05-31T02:52:08;101306.05;;;9.31;62.79
39177;BME280;24904;52.208;21.192;2023-05-31T02:57:43;101312.95;;;9.26;62.99
39177;BME280;24904;52.208;21.192;2023-05-31T03:02:47;101316.71;;;9.21;63.26
39177;BME280;24904;52.208;21.192;2023-05-31T03:08:09;101317.91;;;9.24;63.63
39177;BME280;24904;52.208;21.192;2023-05-31T03:13:12;101319.97;;;9.25;63.67
39177;BME280;24904;52.208;21.192;2023-05-31T03:18:16;101321.94;;;9.33;63.87
39177;BME280;24904;52.208;21.192;2023-05-31T03:23:19;101327.30;;;9.36;63.94
39177;BME280;24904;52.208;21.192;2023-05-31T03:28:22;101327.56;;;9.42;64.28
39177;BME280;24904;52.208;21.192;2023-05-31T03:33:26;101326.71;;;9.50;64.34
39177;BME280;24904;52.208;21.192;2023-05-31T03:38:29;101325.25;;;9.62;64.17
39177;BME280;24904;52.208;21.192;2023-05-31T03:43:32;101323.42;;;9.79;63.81
39177;BME280;24904;52.208;21.192;2023-05-31T03:48:35;101321.13;;;9.89;64.13
39177;BME280;24904;52.208;21.192;2023-05-31T03:53:38;101322.77;;;9.97;63.97
39177;BME280;24904;52.208;21.192;2023-05-31T03:58:42;101323.78;;;10.05;63.78
39177;BME280;24904;52.208;21.192;2023-05-31T04:03:45;101321.96;;;10.15;63.70
39177;BME280;24904;52.208;21.192;2023-05-31T04:08:48;101323.88;;;10.27;63.73
39177;BME280;24904;52.208;21.192;2023-05-31T04:13:52;101325.97;;;10.40;63.75
39177;BME280;24904;52.208;21.192;2023-05-31T04:18:55;101322.19;;;10.49;63.48
39177;BME280;24904;52.208;21.192;2023-05-31T04:23:59;101317.88;;;10.61;63.55
39177;BME280;24904;52.208;21.192;2023-05-31T04:29:02;101316.45;;;10.75;63.38
39177;BME280;24904;52.208;21.192;2023-05-31T04:34:06;101321.55;;;10.88;63.14
39177;BME280;24904;52.208;21.192;2023-05-31T04:39:11;101325.35;;;11.01;62.59
39177;BME280;24904;52.208;21.192;2023-05-31T04:52:01;101330.45;;;11.35;62.16
39177;BME280;24904;52.208;21.192;2023-05-31T04:57:07;101326.86;;;11.46;61.99
39177;BME280;24904;52.208;21.192;2023-05-31T05:02:13;101323.06;;;11.55;61.50
39177;BME280;24904;52.208;21.192;2023-05-31T05:07:18;101324.11;;;11.63;61.49
39177;BME280;24904;52.208;21.192;2023-05-31T05:12:25;101326.29;;;11.73;61.16
39177;BME280;24904;52.208;21.192;2023-05-31T05:17:30;101319.20;;;11.85;60.94
39177;BME280;24904;52.208;21.192;2023-05-31T05:22:35;101314.48;;;11.97;60.59
39177;BME280;24904;52.208;21.192;2023-05-31T05:27:40;101311.43;;;12.06;60.52
39177;BME280;24904;52.208;21.192;2023-05-31T05:32:45;101311.67;;;12.22;60.28
39177;BME280;24904;52.208;21.192;2023-05-31T05:37:50;101316.65;;;12.40;60.22
39177;BME280;24904;52.208;21.192;2023-05-31T05:42:56;101318.47;;;12.57;59.62
39177;BME280;24904;52.208;21.192;2023-05-31T05:48:02;101321.70;;;12.76;58.79
39177;BME280;24904;52.208;21.192;2023-05-31T05:53:09;101316.48;;;12.93;58.36
39177;BME280;24904;52.208;21.192;2023-05-31T05:58:16;101312.04;;;13.10;57.65
39177;BME280;24904;52.208;21.192;2023-05-31T06:03:47;101314.77;;;13.32;56.53
39177;BME280;24904;52.208;21.192;2023-05-31T06:08:52;101312.58;;;13.54;56.29
39177;BME280;24904;52.208;21.192;2023-05-31T06:13:58;101313.88;;;13.74;54.85
39177;BME280;24904;52.208;21.192;2023-05-31T06:19:08;101311.63;;;13.97;55.17
39177;BME280;24904;52.208;21.192;2023-05-31T06:24:14;101311.87;;;14.16;55.33
39177;BME280;24904;52.208;21.192;2023-05-31T06:29:19;101308.37;;;14.35;54.17
39177;BME280;24904;52.208;21.192;2023-05-31T06:34:47;101308.45;;;14.56;53.61
39177;BME280;24904;52.208;21.192;2023-05-31T06:39:53;101304.77;;;14.76;52.74
39177;BME280;24904;52.208;21.192;2023-05-31T06:44:58;101303.36;;;14.96;52.46
39177;BME280;24904;52.208;21.192;2023-05-31T06:50:22;101302.39;;;15.14;50.81
39177;BME280;24904;52.208;21.192;2023-05-31T06:55:46;101297.31;;;15.34;49.90
39177;BME280;24904;52.208;21.192;2023-05-31T07:00:53;101297.83;;;15.54;48.78
39177;BME280;24904;52.208;21.192;2023-05-31T07:05:59;101294.48;;;15.72;47.72
39177;BME280;24904;52.208;21.192;2023-05-31T07:11:05;101294.86;;;15.89;46.89
39177;BME280;24904;52.208;21.192;2023-05-31T07:16:10;101290.16;;;16.02;45.14
39177;BME280;24904;52.208;21.192;2023-05-31T07:21:15;101290.38;;;16.22;44.67
39177;BME280;24904;52.208;21.192;2023-05-31T07:26:21;101282.98;;;16.45;44.69
39177;BME280;24904;52.208;21.192;2023-05-31T07:31:26;101279.47;;;16.67;44.37
39177;BME280;24904;52.208;21.192;2023-05-31T07:36:31;101277.66;;;16.85;42.64
39177;BME280;24904;52.208;21.192;2023-05-31T07:41:36;101268.30;;;17.03;40.72
39177;BME280;24904;52.208;21.192;2023-05-31T07:46:41;101263.13;;;17.17;39.40
39177;BME280;24904;52.208;21.192;2023-05-31T07:51:46;101257.78;;;17.31;39.20
39177;BME280;24904;52.208;21.192;2023-05-31T07:59:58;101249.38;;;17.60;37.40
39177;BME280;24904;52.208;21.192;2023-05-31T08:05:01;101242.50;;;17.76;37.33
39177;BME280;24904;52.208;21.192;2023-05-31T08:10:07;101242.73;;;17.94;37.02
39177;BME280;24904;52.208;21.192;2023-05-31T08:15:12;101233.00;;;18.03;35.73
39177;BME280;24904;52.208;21.192;2023-05-31T08:20:15;101239.48;;;18.24;35.49
39177;BME280;24904;52.208;21.192;2023-05-31T08:25:19;101236.65;;;18.41;34.43
39177;BME280;24904;52.208;21.192;2023-05-31T08:30:22;101229.69;;;18.58;34.36
39177;BME280;24904;52.208;21.192;2023-05-31T08:35:25;101233.33;;;18.63;33.61
39177;BME280;24904;52.208;21.192;2023-05-31T08:40:28;101224.25;;;18.75;33.55
39177;BME280;24904;52.208;21.192;2023-05-31T08:45:34;101222.91;;;18.90;33.75
39177;BME280;24904;52.208;21.192;2023-05-31T08:50:37;101220.45;;;19.07;33.73
39177;BME280;24904;52.208;21.192;2023-05-31T08:55:41;101209.34;;;19.26;32.93
39177;BME280;24904;52.208;21.192;2023-05-31T09:00:45;101216.73;;;19.35;33.14
39177;BME280;24904;52.208;21.192;2023-05-31T09:05:48;101216.63;;;19.44;32.26
39177;BME280;24904;52.208;21.192;2023-05-31T09:10:51;101217.75;;;19.49;32.44
39177;BME280;24904;52.208;21.192;2023-05-31T09:15:54;101220.95;;;19.56;31.57
39177;BME280;24904;52.208;21.192;2023-05-31T09:20:58;101218.96;;;19.70;31.99
39177;BME280;24904;52.208;21.192;2023-05-31T09:26:09;101213.81;;;19.79;31.69
39177;BME280;24904;52.208;21.192;2023-05-31T09:31:15;101214.32;;;19.89;30.89
39177;BME280;24904;52.208;21.192;2023-05-31T09:36:25;101206.18;;;19.95;29.69
39177;BME280;24904;52.208;21.192;2023-05-31T09:41:28;101204.54;;;19.99;28.60
39177;BME280;24904;52.208;21.192;2023-05-31T09:46:32;101209.83;;;20.13;28.34
39177;BME280;24904;52.208;21.192;2023-05-31T09:51:37;101207.42;;;20.20;28.51
39177;BME280;24904;52.208;21.192;2023-05-31T09:56:40;101207.66;;;20.25;28.10
39177;BME280;24904;52.208;21.192;2023-05-31T10:01:44;101202.13;;;20.28;27.17
39177;BME280;24904;52.208;21.192;2023-05-31T10:06:48;101192.13;;;20.40;27.56
39177;BME280;24904;52.208;21.192;2023-05-31T10:11:54;101189.53;;;20.53;27.37
39177;BME280;24904;52.208;21.192;2023-05-31T10:17:01;101188.15;;;20.65;27.43
39177;BME280;24904;52.208;21.192;2023-05-31T10:22:06;101181.16;;;20.73;25.89
39177;BME280;24904;52.208;21.192;2023-05-31T10:27:14;101179.83;;;20.80;26.56
39177;BME280;24904;52.208;21.192;2023-05-31T10:32:23;101176.84;;;20.82;26.33
39177;BME280;24904;52.208;21.192;2023-05-31T10:37:27;101181.77;;;20.87;26.22
39177;BME280;24904;52.208;21.192;2023-05-31T10:42:37;101183.48;;;20.81;24.67
39177;BME280;24904;52.208;21.192;2023-05-31T10:47:49;101182.02;;;20.82;24.47
39177;BME280;24904;52.208;21.192;2023-05-31T10:53:07;101175.23;;;20.91;25.80
39177;BME280;24904;52.208;21.192;2023-05-31T10:58:25;101168.76;;;21.09;25.79
39177;BME280;24904;52.208;21.192;2023-05-31T11:03:29;101164.12;;;21.18;25.56
39177;BME280;24904;52.208;21.192;2023-05-31T11:08:34;101161.91;;;21.29;26.06
39177;BME280;24904;52.208;21.192;2023-05-31T11:13:59;101157.79;;;21.44;26.00
39177;BME280;24904;52.208;21.192;2023-05-31T11:19:06;101156.27;;;21.47;25.27
39177;BME280;24904;52.208;21.192;2023-05-31T11:24:10;101153.16;;;21.44;24.51
39177;BME280;24904;52.208;21.192;2023-05-31T11:29:13;101144.36;;;21.44;25.02
39177;BME280;24904;52.208;21.192;2023-05-31T11:34:19;101135.40;;;21.49;24.43
39177;BME280;24904;52.208;21.192;2023-05-31T11:39:23;101133.33;;;21.45;23.56
39177;BME280;24904;52.208;21.192;2023-05-31T11:44:31;101129.58;;;21.42;23.51
39177;BME280;24904;52.208;21.192;2023-05-31T11:49:34;101124.61;;;21.46;23.81
39177;BME280;24904;52.208;21.192;2023-05-31T11:54:38;101122.70;;;21.53;24.24
39177;BME280;24904;52.208;21.192;2023-05-31T11:59:45;101113.88;;;21.50;24.07
39177;BME280;24904;52.208;21.192;2023-05-31T12:04:48;101097.98;;;21.44;24.12
39177;BME280;24904;52.208;21.192;2023-05-31T12:09:52;101091.72;;;21.35;24.37
39177;BME280;24904;52.208;21.192;2023-05-31T12:14:55;101085.63;;;21.20;23.88
39177;BME280;24904;52.208;21.192;2023-05-31T12:19:59;101086.50;;;21.13;24.94
39177;BME280;24904;52.208;21.192;2023-05-31T12:25:03;101080.46;;;21.11;24.14
39177;BME280;24904;52.208;21.192;2023-05-31T12:30:09;101073.02;;;21.13;24.37
39177;BME280;24904;52.208;21.192;2023-05-31T12:35:18;101068.98;;;21.19;24.72
39177;BME280;24904;52.208;21.192;2023-05-31T12:40:22;101065.81;;;21.25;23.80
39177;BME280;24904;52.208;21.192;2023-05-31T12:45:25;101056.72;;;21.25;23.00
39177;BME280;24904;52.208;21.192;2023-05-31T12:50:29;101052.01;;;21.21;22.60
39177;BME280;24904;52.208;21.192;2023-05-31T12:55:32;101042.17;;;21.21;22.96
39177;BME280;24904;52.208;21.192;2023-05-31T13:00:36;101037.20;;;21.22;23.07
39177;BME280;24904;52.208;21.192;2023-05-31T13:09:17;101032.00;;;21.32;22.81
39177;BME280;24904;52.208;21.192;2023-05-31T13:14:22;101028.44;;;21.35;22.98
39177;BME280;24904;52.208;21.192;2023-05-31T13:24:29;101008.95;;;21.31;23.18
39177;BME280;24904;52.208;21.192;2023-05-31T13:29:34;101005.02;;;21.29;23.24
39177;BME280;24904;52.208;21.192;2023-05-31T13:34:39;100999.27;;;21.26;23.29
39177;BME280;24904;52.208;21.192;2023-05-31T13:39:44;100991.92;;;21.25;24.03
39177;BME280;24904;52.208;21.192;2023-05-31T13:44:49;100984.27;;;21.26;23.14
39177;BME280;24904;52.208;21.192;2023-05-31T13:49:55;100971.73;;;21.25;23.58
39177;BME280;24904;52.208;21.192;2023-05-31T13:59:00;100962.46;;;21.25;25.13
39177;BME280;24904;52.208;21.192;2023-05-31T14:04:03;100958.90;;;21.20;24.18
39177;BME280;24904;52.208;21.192;2023-05-31T14:09:07;100946.51;;;21.21;23.71
39177;BME280;24904;52.208;21.192;2023-05-31T14:14:10;100934.95;;;21.23;23.29
39177;BME280;24904;52.208;21.192;2023-05-31T14:19:13;100934.98;;;21.23;23.64
39177;BME280;24904;52.208;21.192;2023-05-31T14:31:43;100923.84;;;21.19;24.88
39177;BME280;24904;52.208;21.192;2023-05-31T14:36:46;100914.90;;;21.15;24.35
39177;BME280;24904;52.208;21.192;2023-05-31T14:41:49;100907.89;;;21.18;24.03
39177;BME280;24904;52.208;21.192;2023-05-31T14:46:52;100903.81;;;21.18;24.94
39177;BME280;24904;52.208;21.192;2023-05-31T14:51:57;100899.81;;;21.15;23.61
39177;BME280;24904;52.208;21.192;2023-05-31T14:57:00;100897.42;;;21.12;24.53
39177;BME280;24904;52.208;21.192;2023-05-31T15:02:05;100893.77;;;21.10;24.22
39177;BME280;24904;52.208;21.192;2023-05-31T15:07:10;100891.11;;;21.05;25.53
39177;BME280;24904;52.208;21.192;2023-05-31T15:12:14;100887.17;;;21.03;24.14
39177;BME280;24904;52.208;21.192;2023-05-31T15:17:17;100875.90;;;21.04;24.13
39177;BME280;24904;52.208;21.192;2023-05-31T15:22:20;100878.14;;;21.04;24.90
39177;BME280;24904;52.208;21.192;2023-05-31T15:27:23;100873.92;;;21.00;25.26
39177;BME280;24904;52.208;21.192;2023-05-31T15:32:26;100869.26;;;20.99;25.42
39177;BME280;24904;52.208;21.192;2023-05-31T15:37:29;100866.70;;;20.95;26.24
39177;BME280;24904;52.208;21.192;2023-05-31T15:42:32;100865.89;;;20.89;26.82
39177;BME280;24904;52.208;21.192;2023-05-31T15:47:35;100862.05;;;20.83;26.14
39177;BME280;24904;52.208;21.192;2023-05-31T15:52:38;100857.14;;;20.78;25.41
39177;BME280;24904;52.208;21.192;2023-05-31T15:57:41;100854.15;;;20.73;25.48
39177;BME280;24904;52.208;21.192;2023-05-31T16:02:44;100849.30;;;20.68;25.10
39177;BME280;24904;52.208;21.192;2023-05-31T16:07:47;100840.48;;;20.61;25.95
39177;BME280;24904;52.208;21.192;2023-05-31T16:12:50;100838.61;;;20.55;25.86
39177;BME280;24904;52.208;21.192;2023-05-31T16:17:54;100840.77;;;20.48;26.05
39177;BME280;24904;52.208;21.192;2023-05-31T16:22:57;100841.95;;;20.44;25.16
39177;BME280;24904;52.208;21.192;2023-05-31T16:28:00;100832.64;;;20.39;25.13
39177;BME280;24904;52.208;21.192;2023-05-31T16:33:04;100828.48;;;20.32;24.80
39177;BME280;24904;52.208;21.192;2023-05-31T16:38:07;100821.61;;;20.26;24.82
39177;BME280;24904;52.208;21.192;2023-05-31T16:43:10;100818.51;;;20.18;24.54
39177;BME280;24904;52.208;21.192;2023-05-31T16:48:14;100818.05;;;20.09;24.87
39177;BME280;24904;52.208;21.192;2023-05-31T16:53:17;100813.11;;;19.98;24.98
39177;BME280;24904;52.208;21.192;2023-05-31T16:58:20;100808.55;;;19.92;24.88
39177;BME280;24904;52.208;21.192;2023-05-31T17:03:23;100806.59;;;19.90;24.96
39177;BME280;24904;52.208;21.192;2023-05-31T17:08:27;100804.23;;;19.85;24.91
39177;BME280;24904;52.208;21.192;2023-05-31T17:13:30;100796.48;;;19.78;24.98
39177;BME280;24904;52.208;21.192;2023-05-31T17:18:33;100789.27;;;19.73;25.20
39177;BME280;24904;52.208;21.192;2023-05-31T17:28:27;100781.79;;;19.60;25.98
39177;BME280;24904;52.208;21.192;2023-05-31T17:33:32;100781.38;;;19.51;26.43
39177;BME280;24904;52.208;21.192;2023-05-31T17:38:37;100774.59;;;19.44;26.81
39177;BME280;24904;52.208;21.192;2023-05-31T17:43:42;100769.02;;;19.36;27.11
39177;BME280;24904;52.208;21.192;2023-05-31T17:48:47;100763.92;;;19.27;27.78
39177;BME280;24904;52.208;21.192;2023-05-31T17:53:52;100762.72;;;19.15;28.38
39177;BME280;24904;52.208;21.192;2023-05-31T17:58:58;100758.85;;;18.99;28.97
39177;BME280;24904;52.208;21.192;2023-05-31T18:04:03;100752.98;;;18.85;29.47
39177;BME280;24904;52.208;21.192;2023-05-31T18:09:09;100751.53;;;18.66;30.38
39177;BME280;24904;52.208;21.192;2023-05-31T18:14:14;100751.95;;;18.47;30.96
39177;BME280;24904;52.208;21.192;2023-05-31T18:19:20;100751.45;;;18.27;31.78
39177;BME280;24904;52.208;21.192;2023-05-31T18:24:25;100750.06;;;18.07;32.60
39177;BME280;24904;52.208;21.192;2023-05-31T18:29:30;100752.04;;;17.90;33.22
39177;BME280;24904;52.208;21.192;2023-05-31T18:34:35;100749.27;;;17.70;33.48
39177;BME280;24904;52.208;21.192;2023-05-31T18:39:40;100748.28;;;17.50;34.35
39177;BME280;24904;52.208;21.192;2023-05-31T18:44:46;100745.13;;;17.33;34.65
39177;BME280;24904;52.208;21.192;2023-05-31T18:49:51;100739.31;;;17.13;35.24
39177;BME280;24904;52.208;21.192;2023-05-31T18:54:56;100743.14;;;16.94;35.67
39177;BME280;24904;52.208;21.192;2023-05-31T19:00:01;100749.55;;;16.76;36.35
39177;BME280;24904;52.208;21.192;2023-05-31T19:05:08;100748.41;;;16.56;36.88
39177;BME280;24904;52.208;21.192;2023-05-31T19:10:14;100743.79;;;16.37;37.70
39177;BME280;24904;52.208;21.192;2023-05-31T19:15:19;100743.12;;;16.18;38.08
39177;BME280;24904;52.208;21.192;2023-05-31T19:20:24;100743.31;;;15.96;38.60
39177;BME280;24904;52.208;21.192;2023-05-31T19:25:29;100741.34;;;15.78;39.31
39177;BME280;24904;52.208;21.192;2023-05-31T19:30:34;100741.40;;;15.59;39.39
39177;BME280;24904;52.208;21.192;2023-05-31T19:35:39;100738.84;;;15.39;39.61
39177;BME280;24904;52.208;21.192;2023-05-31T19:40:45;100744.64;;;15.23;40.07
39177;BME280;24904;52.208;21.192;2023-05-31T19:45:50;100742.54;;;15.05;40.46
39177;BME280;24904;52.208;21.192;2023-05-31T19:50:55;100743.73;;;14.91;40.74
39177;BME280;24904;52.208;21.192;2023-05-31T19:56:01;100739.48;;;14.77;41.11
39177;BME280;24904;52.208;21.192;2023-05-31T20:01:06;100735.37;;;14.62;41.34
39177;BME280;24904;52.208;21.192;2023-05-31T20:06:11;100740.33;;;14.47;41.56
39177;BME280;24904;52.208;21.192;2023-05-31T20:11:16;100741.15;;;14.34;42.30
39177;BME280;24904;52.208;21.192;2023-05-31T20:16:21;100736.64;;;14.27;42.79
39177;BME280;24904;52.208;21.192;2023-05-31T20:21:27;100737.95;;;14.14;42.80
39177;BME280;24904;52.208;21.192;2023-05-31T20:26:32;100738.01;;;14.02;43.01
39177;BME280;24904;52.208;21.192;2023-05-31T20:31:37;100735.52;;;13.90;43.52
39177;BME280;24904;52.208;21.192;2023-05-31T20:36:42;100733.75;;;13.77;43.72
39177;BME280;24904;52.208;21.192;2023-05-31T20:41:47;100735.80;;;13.62;43.99
39177;BME280;24904;52.208;21.192;2023-05-31T20:46:52;100734.26;;;13.51;44.40
39177;BME280;24904;52.208;21.192;2023-05-31T20:51:57;100726.17;;;13.42;44.85
39177;BME280;24904;52.208;21.192;2023-05-31T20:57:45;100721.08;;;13.32;44.87
39177;BME280;24904;52.208;21.192;2023-05-31T21:02:48;100717.92;;;13.11;45.30
39177;BME280;24904;52.208;21.192;2023-05-31T21:07:52;100716.27;;;12.98;45.75
39177;BME280;24904;52.208;21.192;2023-05-31T21:12:55;100710.92;;;12.90;46.15
39177;BME280;24904;52.208;21.192;2023-05-31T21:17:58;100713.06;;;12.80;46.63
39177;BME280;24904;52.208;21.192;2023-05-31T21:23:01;100709.46;;;12.70;47.04
39177;BME280;24904;52.208;21.192;2023-05-31T21:28:04;100708.73;;;12.67;47.47
39177;BME280;24904;52.208;21.192;2023-05-31T21:33:07;100703.58;;;12.55;47.72
39177;BME280;24904;52.208;21.192;2023-05-31T21:38:10;100701.14;;;12.44;48.30
39177;BME280;24904;52.208;21.192;2023-05-31T21:43:13;100700.16;;;12.42;48.47
39177;BME280;24904;52.208;21.192;2023-05-31T21:48:16;100698.59;;;12.40;48.66
39177;BME280;24904;52.208;21.192;2023-05-31T21:53:19;100699.48;;;12.36;48.85
39177;BME280;24904;52.208;21.192;2023-05-31T21:58:22;100696.13;;;12.30;49.07
39177;BME280;24904;52.208;21.192;2023-05-31T22:03:26;100696.88;;;12.25;49.22
39177;BME280;24904;52.208;21.192;2023-05-31T22:08:29;100690.34;;;12.17;49.43
39177;BME280;24904;52.208;21.192;2023-05-31T22:13:32;100687.83;;;12.11;49.78
39177;BME280;24904;52.208;21.192;2023-05-31T22:18:36;100685.64;;;12.04;49.76
39177;BME280;24904;52.208;21.192;2023-05-31T22:23:47;100681.72;;;11.97;49.96
39177;BME280;24904;52.208;21.192;2023-05-31T22:28:51;100678.02;;;11.88;50.15
39177;BME280;24904;52.208;21.192;2023-05-31T22:33:54;100677.14;;;11.80;50.31
39177;BME280;24904;52.208;21.192;2023-05-31T22:39:17;100671.50;;;11.77;50.52
39177;BME280;24904;52.208;21.192;2023-05-31T22:44:23;100672.02;;;11.67;50.78
39177;BME280;24904;52.208;21.192;2023-05-31T22:49:28;100671.27;;;11.64;51.05
39177;BME280;24904;52.208;21.192;2023-05-31T22:54:33;100667.02;;;11.55;51.28
39177;BME280;24904;52.208;21.192;2023-05-31T22:59:39;100663.27;;;11.45;51.52
39177;BME280;24904;52.208;21.192;2023-05-31T23:04:44;100663.29;;;11.41;52.03
39177;BME280;24904;52.208;21.192;2023-05-31T23:09:49;100661.17;;;11.34;52.17
39177;BME280;24904;52.208;21.192;2023-05-31T23:14:54;100658.98;;;11.29;52.39
39177;BME280;24904;52.208;21.192;2023-05-31T23:20:01;100659.64;;;11.32;52.61
39177;BME280;24904;52.208;21.192;2023-05-31T23:25:09;100655.69;;;11.28;52.76
39177;BME280;24904;52.208;21.192;2023-05-31T23:30:15;100654.46;;;11.26;53.16
39177;BME280;24904;52.208;21.192;2023-05-31T23:35:20;100652.50;;;11.19;53.08
39177;BME280;24904;52.208;21.192;2023-05-31T23:40:25;100646.17;;;11.10;53.34
39177;BME280;24904;52.208;21.192;2023-05-31T23:45:30;100639.61;;;11.00;53.43
39177;BME280;24904;52.208;21.192;2023-05-31T23:50:35;100638.05;;;10.85;53.72
39177;BME280;24904;52.208;21.192;2023-05-31T23:55:40;100639.66;;;10.78;54.00
